sensor_id;sensor_type;location;lat;lon;timestamp;pressure;altitude;pressure_sealevel;temperature;humidity
73453;BME280;61687;56.232;43.854;2023-02-01T00:02:02;99967.38;;;-0.98;68.99
73453;BME280;61687;56.232;43.854;2023-02-01T00:04:28;99966.78;;;-0.95;68.56
73453;BME280;61687;56.232;43.854;2023-02-01T00:06:54;99967.50;;;-0.90;68.46
73453;BME280;61687;56.232;43.854;2023-02-01T00:09:20;99965.91;;;-0.91;68.58
73453;BME280;61687;56.232;43.854;2023-02-01T00:11:46;99968.59;;;-0.91;68.57
73453;BME280;61687;56.232;43.854;2023-02-01T00:14:12;99966.38;;;-0.89;68.55
73453;BME280;61687;56.232;43.854;2023-02-01T00:16:39;99964.19;;;-0.87;68.50
73453;BME280;61687;56.232;43.854;2023-02-01T00:19:13;99971.16;;;-0.85;68.45
73453;BME280;61687;56.232;43.854;2023-02-01T00:21:41;99969.47;;;-0.81;68.24
73453;BME280;61687;56.232;43.854;2023-02-01T00:24:08;99970.88;;;-0.84;68.39
73453;BME280;61687;56.232;43.854;2023-02-01T00:26:36;99972.75;;;-0.84;68.33
73453;BME280;61687;56.232;43.854;2023-02-01T00:29:05;99978.44;;;-0.86;68.37
73453;BME280;61687;56.232;43.854;2023-02-01T00:31:31;99971.94;;;-0.85;68.50
73453;BME280;61687;56.232;43.854;2023-02-01T00:33:57;99968.38;;;-0.80;68.42
73453;BME280;61687;56.232;43.854;2023-02-01T00:36:23;99971.56;;;-0.78;68.46
73453;BME280;61687;56.232;43.854;2023-02-01T00:38:49;99966.38;;;-0.75;68.32
73453;BME280;61687;56.232;43.854;2023-02-01T00:41:17;99968.19;;;-0.70;68.27
73453;BME280;61687;56.232;43.854;2023-02-01T00:43:44;99965.19;;;-0.68;68.29
73453;BME280;61687;56.232;43.854;2023-02-01T00:46:11;99968.78;;;-0.73;68.04
73453;BME280;61687;56.232;43.854;2023-02-01T00:48:38;99971.97;;;-0.71;68.16
73453;BME280;61687;56.232;43.854;2023-02-01T00:51:13;99967.97;;;-0.74;68.14
73453;BME280;61687;56.232;43.854;2023-02-01T00:53:39;99960.50;;;-0.77;68.27
73453;BME280;61687;56.232;43.854;2023-02-01T00:56:06;99969.88;;;-0.74;68.14
73453;BME280;61687;56.232;43.854;2023-02-01T00:58:32;99967.50;;;-0.76;68.14
73453;BME280;61687;56.232;43.854;2023-02-01T01:01:04;99965.41;;;-0.79;68.25
73453;BME280;61687;56.232;43.854;2023-02-01T01:03:30;99963.81;;;-0.80;68.18
73453;BME280;61687;56.232;43.854;2023-02-01T01:06:00;99962.00;;;-0.84;68.35
73453;BME280;61687;56.232;43.854;2023-02-01T01:08:27;99964.81;;;-0.90;68.67
73453;BME280;61687;56.232;43.854;2023-02-01T01:10:53;99964.59;;;-0.93;68.83
73453;BME280;61687;56.232;43.854;2023-02-01T01:13:19;99963.28;;;-0.96;69.03
73453;BME280;61687;56.232;43.854;2023-02-01T01:15:45;99965.41;;;-0.93;69.16
73453;BME280;61687;56.232;43.854;2023-02-01T01:18:11;99961.50;;;-0.87;69.04
73453;BME280;61687;56.232;43.854;2023-02-01T01:20:39;99964.19;;;-0.87;68.94
73453;BME280;61687;56.232;43.854;2023-02-01T01:23:07;99971.94;;;-0.85;68.86
73453;BME280;61687;56.232;43.854;2023-02-01T01:25:38;99962.00;;;-0.84;68.79
73453;BME280;61687;56.232;43.854;2023-02-01T01:28:05;99960.31;;;-0.80;68.98
73453;BME280;61687;56.232;43.854;2023-02-01T01:30:32;99958.59;;;-0.76;68.86
73453;BME280;61687;56.232;43.854;2023-02-01T01:32:58;99957.22;;;-0.74;68.72
73453;BME280;61687;56.232;43.854;2023-02-01T01:35:24;99969.09;;;-0.75;68.45
73453;BME280;61687;56.232;43.854;2023-02-01T01:37:50;99967.00;;;-0.78;68.49
73453;BME280;61687;56.232;43.854;2023-02-01T01:40:16;99966.56;;;-0.85;68.69
73453;BME280;61687;56.232;43.854;2023-02-01T01:42:43;99971.78;;;-0.89;68.82
73453;BME280;61687;56.232;43.854;2023-02-01T01:45:30;99977.66;;;-0.87;69.12
73453;BME280;61687;56.232;43.854;2023-02-01T01:48:11;99988.09;;;-0.99;69.00
73453;BME280;61687;56.232;43.854;2023-02-01T01:50:58;99981.13;;;-1.00;69.33
73453;BME280;61687;56.232;43.854;2023-02-01T01:53:32;99979.41;;;-0.96;68.97
73453;BME280;61687;56.232;43.854;2023-02-01T01:56:00;99982.03;;;-0.91;68.79
73453;BME280;61687;56.232;43.854;2023-02-01T01:58:28;99979.63;;;-0.92;68.95
73453;BME280;61687;56.232;43.854;2023-02-01T02:00:54;99983.13;;;-0.92;68.81
73453;BME280;61687;56.232;43.854;2023-02-01T02:03:28;99982.63;;;-0.94;68.79
73453;BME280;61687;56.232;43.854;2023-02-01T02:05:59;99985.41;;;-0.99;68.98
73453;BME280;61687;56.232;43.854;2023-02-01T02:08:27;99984.13;;;-1.02;69.15
73453;BME280;61687;56.232;43.854;2023-02-01T02:10:53;99988.69;;;-1.02;69.06
73453;BME280;61687;56.232;43.854;2023-02-01T02:13:50;99987.59;;;-1.01;69.20
73453;BME280;61687;56.232;43.854;2023-02-01T02:17:03;99986.00;;;-1.02;69.22
73453;BME280;61687;56.232;43.854;2023-02-01T02:20:19;99993.19;;;-0.97;69.11
73453;BME280;61687;56.232;43.854;2023-02-01T02:44:54;99992.97;;;-1.01;69.08
73453;BME280;61687;56.232;43.854;2023-02-01T02:47:56;99995.97;;;-1.03;69.25
73453;BME280;61687;56.232;43.854;2023-02-01T02:50:37;99998.34;;;-1.01;69.32
73453;BME280;61687;56.232;43.854;2023-02-01T02:53:49;100000.75;;;-0.99;69.20
73453;BME280;61687;56.232;43.854;2023-02-01T02:56:38;100000.84;;;-1.05;69.27
73453;BME280;61687;56.232;43.854;2023-02-01T02:59:25;99985.09;;;-1.11;69.48
73453;BME280;61687;56.232;43.854;2023-02-01T03:02:12;99997.63;;;-1.07;69.62
73453;BME280;61687;56.232;43.854;2023-02-01T03:04:57;99996.25;;;-1.04;69.45
73453;BME280;61687;56.232;43.854;2023-02-01T03:10:30;100006.72;;;-1.03;69.43
73453;BME280;61687;56.232;43.854;2023-02-01T03:13:06;100012.38;;;-1.04;69.46
73453;BME280;61687;56.232;43.854;2023-02-01T03:15:41;100016.69;;;-1.03;69.35
73453;BME280;61687;56.232;43.854;2023-02-01T03:18:19;100017.50;;;-1.03;69.34
73453;BME280;61687;56.232;43.854;2023-02-01T03:20:50;100015.78;;;-0.98;69.38
73453;BME280;61687;56.232;43.854;2023-02-01T03:23:20;100016.56;;;-0.98;69.13
73453;BME280;61687;56.232;43.854;2023-02-01T03:25:50;100007.22;;;-1.01;69.22
73453;BME280;61687;56.232;43.854;2023-02-01T03:28:18;100003.22;;;-1.03;69.13
73453;BME280;61687;56.232;43.854;2023-02-01T03:30:48;99999.03;;;-1.09;69.42
73453;BME280;61687;56.232;43.854;2023-02-01T03:33:21;100009.81;;;-1.09;69.63
73453;BME280;61687;56.232;43.854;2023-02-01T03:38:39;100013.97;;;-1.17;69.63
73453;BME280;61687;56.232;43.854;2023-02-01T03:44:02;100012.25;;;-1.27;69.96
73453;BME280;61687;56.232;43.854;2023-02-01T03:46:55;100014.22;;;-1.33;70.20
73453;BME280;61687;56.232;43.854;2023-02-01T03:49:27;100021.91;;;-1.26;70.15
73453;BME280;61687;56.232;43.854;2023-02-01T03:51:56;100023.00;;;-1.27;70.08
73453;BME280;61687;56.232;43.854;2023-02-01T03:54:24;100025.69;;;-1.27;70.05
73453;BME280;61687;56.232;43.854;2023-02-01T03:56:52;100030.47;;;-1.24;69.93
73453;BME280;61687;56.232;43.854;2023-02-01T03:59:21;100029.47;;;-1.28;70.18
73453;BME280;61687;56.232;43.854;2023-02-01T04:01:47;100041.22;;;-1.24;70.08
73453;BME280;61687;56.232;43.854;2023-02-01T04:04:13;100039.72;;;-1.30;70.12
73453;BME280;61687;56.232;43.854;2023-02-01T04:06:50;100044.88;;;-1.34;70.29
73453;BME280;61687;56.232;43.854;2023-02-01T04:09:16;100059.31;;;-1.30;70.19
73453;BME280;61687;56.232;43.854;2023-02-01T04:11:43;100051.66;;;-1.36;70.49
73453;BME280;61687;56.232;43.854;2023-02-01T04:14:09;100058.63;;;-1.35;70.54
73453;BME280;61687;56.232;43.854;2023-02-01T04:16:35;100053.16;;;-1.30;70.42
73453;BME280;61687;56.232;43.854;2023-02-01T04:19:01;100055.03;;;-1.31;70.21
73453;BME280;61687;56.232;43.854;2023-02-01T04:21:28;100055.03;;;-1.31;70.33
73453;BME280;61687;56.232;43.854;2023-02-01T04:23:54;100050.06;;;-1.37;70.29
73453;BME280;61687;56.232;43.854;2023-02-01T04:26:21;100067.56;;;-1.40;70.38
73453;BME280;61687;56.232;43.854;2023-02-01T04:28:47;100069.16;;;-1.39;70.55
73453;BME280;61687;56.232;43.854;2023-02-01T04:31:15;100071.03;;;-1.39;70.52
73453;BME280;61687;56.232;43.854;2023-02-01T04:33:41;100065.88;;;-1.36;70.42
73453;BME280;61687;56.232;43.854;2023-02-01T04:36:07;100060.41;;;-1.31;70.34
73453;BME280;61687;56.232;43.854;2023-02-01T04:38:33;100070.03;;;-1.24;70.40
73453;BME280;61687;56.232;43.854;2023-02-01T04:40:59;100071.31;;;-1.22;70.32
73453;BME280;61687;56.232;43.854;2023-02-01T04:43:25;100075.53;;;-1.16;70.12
73453;BME280;61687;56.232;43.854;2023-02-01T04:45:51;100070.44;;;-1.17;69.95
73453;BME280;61687;56.232;43.854;2023-02-01T04:48:18;100079.50;;;-1.13;70.03
73453;BME280;61687;56.232;43.854;2023-02-01T04:50:45;100083.28;;;-1.14;70.15
73453;BME280;61687;56.232;43.854;2023-02-01T04:53:14;100085.97;;;-1.14;70.07
73453;BME280;61687;56.232;43.854;2023-02-01T04:55:41;100085.38;;;-1.11;70.16
73453;BME280;61687;56.232;43.854;2023-02-01T04:58:07;100094.53;;;-1.12;70.25
73453;BME280;61687;56.232;43.854;2023-02-01T05:00:33;100090.47;;;-1.09;70.01
73453;BME280;61687;56.232;43.854;2023-02-01T05:02:59;100093.16;;;-1.09;69.79
73453;BME280;61687;56.232;43.854;2023-02-01T05:05:26;100096.38;;;-1.07;69.82
73453;BME280;61687;56.232;43.854;2023-02-01T05:07:52;100092.06;;;-1.08;69.67
73453;BME280;61687;56.232;43.854;2023-02-01T05:10:18;100091.66;;;-1.16;69.94
73453;BME280;61687;56.232;43.854;2023-02-01T05:12:44;100096.44;;;-1.12;69.96
73453;BME280;61687;56.232;43.854;2023-02-01T05:15:29;100097.22;;;-1.12;69.71
73453;BME280;61687;56.232;43.854;2023-02-01T05:17:56;100096.00;;;-1.20;69.74
73453;BME280;61687;56.232;43.854;2023-02-01T05:20:21;100102.97;;;-1.19;69.74
73453;BME280;61687;56.232;43.854;2023-02-01T05:22:47;100108.34;;;-1.19;69.71
73453;BME280;61687;56.232;43.854;2023-02-01T05:25:13;100104.16;;;-1.25;69.90
73453;BME280;61687;56.232;43.854;2023-02-01T05:27:39;100110.03;;;-1.23;69.68
73453;BME280;61687;56.232;43.854;2023-02-01T05:30:05;100106.34;;;-1.27;69.71
73453;BME280;61687;56.232;43.854;2023-02-01T05:32:32;100105.03;;;-1.30;69.72
73453;BME280;61687;56.232;43.854;2023-02-01T05:34:57;100107.53;;;-1.33;69.73
73453;BME280;61687;56.232;43.854;2023-02-01T05:37:23;100105.94;;;-1.34;69.76
73453;BME280;61687;56.232;43.854;2023-02-01T05:39:49;100100.81;;;-1.36;69.58
73453;BME280;61687;56.232;43.854;2023-02-01T05:42:15;100102.88;;;-1.47;69.92
73453;BME280;61687;56.232;43.854;2023-02-01T05:44:41;100109.34;;;-1.48;69.96
73453;BME280;61687;56.232;43.854;2023-02-01T05:47:07;100109.06;;;-1.46;69.95
73453;BME280;61687;56.232;43.854;2023-02-01T05:49:33;100119.00;;;-1.47;69.96
73453;BME280;61687;56.232;43.854;2023-02-01T05:51:59;100117.31;;;-1.42;69.64
73453;BME280;61687;56.232;43.854;2023-02-01T05:54:24;100111.44;;;-1.45;69.79
73453;BME280;61687;56.232;43.854;2023-02-01T05:56:50;100108.16;;;-1.41;69.73
73453;BME280;61687;56.232;43.854;2023-02-01T05:59:17;100116.22;;;-1.41;69.70
73453;BME280;61687;56.232;43.854;2023-02-01T06:01:43;100108.66;;;-1.39;69.72
73453;BME280;61687;56.232;43.854;2023-02-01T06:04:09;100113.75;;;-1.38;69.60
73453;BME280;61687;56.232;43.854;2023-02-01T06:06:34;100112.91;;;-1.33;69.32
73453;BME280;61687;56.232;43.854;2023-02-01T06:09:03;100112.31;;;-1.30;69.13
73453;BME280;61687;56.232;43.854;2023-02-01T06:11:29;100119.19;;;-1.24;69.17
73453;BME280;61687;56.232;43.854;2023-02-01T06:13:55;100128.00;;;-1.18;68.99
73453;BME280;61687;56.232;43.854;2023-02-01T06:16:21;100130.72;;;-1.04;68.69
73453;BME280;61687;56.232;43.854;2023-02-01T06:18:48;100141.13;;;-0.97;68.42
73453;BME280;61687;56.232;43.854;2023-02-01T06:21:14;100137.47;;;-0.88;68.22
73453;BME280;61687;56.232;43.854;2023-02-01T06:23:52;100134.69;;;-0.82;67.90
73453;BME280;61687;56.232;43.854;2023-02-01T06:26:19;100138.97;;;-0.81;67.84
73453;BME280;61687;56.232;43.854;2023-02-01T06:28:45;100146.94;;;-0.76;67.73
73453;BME280;61687;56.232;43.854;2023-02-01T06:31:11;100147.47;;;-0.74;67.55
73453;BME280;61687;56.232;43.854;2023-02-01T06:33:37;100143.16;;;-0.75;67.50
73453;BME280;61687;56.232;43.854;2023-02-01T06:36:06;100147.97;;;-0.72;67.37
73453;BME280;61687;56.232;43.854;2023-02-01T06:38:33;100143.38;;;-0.72;67.21
73453;BME280;61687;56.232;43.854;2023-02-01T06:41:00;100146.38;;;-0.73;67.26
73453;BME280;61687;56.232;43.854;2023-02-01T06:43:28;100144.19;;;-0.71;67.34
73453;BME280;61687;56.232;43.854;2023-02-01T06:45:59;100152.69;;;-0.64;67.05
73453;BME280;61687;56.232;43.854;2023-02-01T06:48:25;100150.19;;;-0.60;66.88
73453;BME280;61687;56.232;43.854;2023-02-01T06:50:51;100154.41;;;-0.54;66.64
73453;BME280;61687;56.232;43.854;2023-02-01T06:53:17;100153.09;;;-0.56;66.68
73453;BME280;61687;56.232;43.854;2023-02-01T06:56:01;100154.13;;;-0.52;66.53
73453;BME280;61687;56.232;43.854;2023-02-01T06:58:31;100158.00;;;-0.45;66.32
73453;BME280;61687;56.232;43.854;2023-02-01T07:01:03;100159.50;;;-0.38;66.02
73453;BME280;61687;56.232;43.854;2023-02-01T07:03:29;100157.50;;;-0.33;65.78
73453;BME280;61687;56.232;43.854;2023-02-01T07:05:56;100160.72;;;-0.31;65.78
73453;BME280;61687;56.232;43.854;2023-02-01T07:08:26;100167.91;;;-0.12;65.46
73453;BME280;61687;56.232;43.854;2023-02-01T07:10:52;100174.50;;;-0.04;65.15
73453;BME280;61687;56.232;43.854;2023-02-01T07:13:18;100169.81;;;0.02;64.76
73453;BME280;61687;56.232;43.854;2023-02-01T07:15:44;100171.28;;;0.08;64.84
73453;BME280;61687;56.232;43.854;2023-02-01T07:18:14;100164.72;;;0.14;64.97
73453;BME280;61687;56.232;43.854;2023-02-01T07:20:40;100174.78;;;0.22;64.42
73453;BME280;61687;56.232;43.854;2023-02-01T07:23:11;100167.00;;;0.21;64.22
73453;BME280;61687;56.232;43.854;2023-02-01T07:25:36;100167.72;;;0.12;64.41
73453;BME280;61687;56.232;43.854;2023-02-01T07:28:02;100170.81;;;0.06;64.75
73453;BME280;61687;56.232;43.854;2023-02-01T07:30:28;100167.22;;;-0.04;64.77
73453;BME280;61687;56.232;43.854;2023-02-01T07:32:54;100159.53;;;0.04;64.83
73453;BME280;61687;56.232;43.854;2023-02-01T07:35:20;100158.84;;;0.12;64.56
73453;BME280;61687;56.232;43.854;2023-02-01T07:37:46;100164.31;;;0.21;64.56
73453;BME280;61687;56.232;43.854;2023-02-01T07:40:11;100162.03;;;0.28;64.33
73453;BME280;61687;56.232;43.854;2023-02-01T07:42:38;100174.16;;;0.39;63.94
73453;BME280;61687;56.232;43.854;2023-02-01T07:45:05;100170.56;;;0.44;63.68
73453;BME280;61687;56.232;43.854;2023-02-01T07:47:31;100174.56;;;0.47;63.55
73453;BME280;61687;56.232;43.854;2023-02-01T07:49:57;100164.06;;;0.45;63.59
73453;BME280;61687;56.232;43.854;2023-02-01T07:52:22;100166.78;;;0.45;63.30
73453;BME280;61687;56.232;43.854;2023-02-01T07:54:48;100171.69;;;0.43;63.74
73453;BME280;61687;56.232;43.854;2023-02-01T07:57:14;100174.66;;;0.55;63.78
73453;BME280;61687;56.232;43.854;2023-02-01T07:59:40;100174.13;;;0.67;63.55
73453;BME280;61687;56.232;43.854;2023-02-01T08:02:26;100168.00;;;0.76;63.25
73453;BME280;61687;56.232;43.854;2023-02-01T08:04:51;100176.09;;;0.76;63.23
73453;BME280;61687;56.232;43.854;2023-02-01T08:07:17;100178.00;;;0.75;63.26
73453;BME280;61687;56.232;43.854;2023-02-01T08:09:43;100172.91;;;0.74;62.89
73453;BME280;61687;56.232;43.854;2023-02-01T08:12:09;100174.34;;;0.57;63.47
73453;BME280;61687;56.232;43.854;2023-02-01T08:14:34;100170.75;;;0.62;63.45
73453;BME280;61687;56.232;43.854;2023-02-01T08:17:00;100174.63;;;0.69;63.07
73453;BME280;61687;56.232;43.854;2023-02-01T08:19:26;100173.31;;;0.67;63.11
73453;BME280;61687;56.232;43.854;2023-02-01T08:21:52;100178.59;;;0.72;62.89
73453;BME280;61687;56.232;43.854;2023-02-01T08:24:18;100180.03;;;0.69;62.98
73453;BME280;61687;56.232;43.854;2023-02-01T08:26:43;100183.69;;;0.74;63.11
73453;BME280;61687;56.232;43.854;2023-02-01T08:29:09;100185.50;;;0.78;63.33
73453;BME280;61687;56.232;43.854;2023-02-01T08:31:38;100177.41;;;0.78;63.43
73453;BME280;61687;56.232;43.854;2023-02-01T08:34:06;100181.00;;;0.74;63.85
73453;BME280;61687;56.232;43.854;2023-02-01T08:36:33;100175.31;;;0.75;64.22
73453;BME280;61687;56.232;43.854;2023-02-01T08:39:00;100175.97;;;0.81;64.36
73453;BME280;61687;56.232;43.854;2023-02-01T08:41:28;100176.66;;;0.87;64.44
73453;BME280;61687;56.232;43.854;2023-02-01T08:43:55;100177.34;;;0.92;64.42
73453;BME280;61687;56.232;43.854;2023-02-01T08:46:22;100180.00;;;1.06;64.34
73453;BME280;61687;56.232;43.854;2023-02-01T08:48:49;100179.19;;;1.06;63.95
73453;BME280;61687;56.232;43.854;2023-02-01T08:51:17;100180.59;;;1.03;64.24
73453;BME280;61687;56.232;43.854;2023-02-01T08:53:43;100179.63;;;0.99;64.32
73453;BME280;61687;56.232;43.854;2023-02-01T08:56:12;100183.72;;;0.96;64.73
73453;BME280;61687;56.232;43.854;2023-02-01T08:58:38;100183.31;;;1.03;64.82
73453;BME280;61687;56.232;43.854;2023-02-01T09:01:06;100191.59;;;1.07;65.10
73453;BME280;61687;56.232;43.854;2023-02-01T09:03:32;100187.00;;;1.07;65.21
73453;BME280;61687;56.232;43.854;2023-02-01T09:06:02;100183.59;;;1.02;65.60
73453;BME280;61687;56.232;43.854;2023-02-01T09:08:29;100185.03;;;0.99;66.00
73453;BME280;61687;56.232;43.854;2023-02-01T09:10:59;100182.44;;;0.94;66.10
73453;BME280;61687;56.232;43.854;2023-02-01T09:13:26;100183.25;;;0.94;66.12
73453;BME280;61687;56.232;43.854;2023-02-01T09:15:52;100183.94;;;1.00;66.14
73453;BME280;61687;56.232;43.854;2023-02-01T09:18:17;100192.56;;;1.11;65.65
73453;BME280;61687;56.232;43.854;2023-02-01T09:20:43;100190.53;;;1.17;65.39
73453;BME280;61687;56.232;43.854;2023-02-01T09:23:09;100195.09;;;1.30;65.01
73453;BME280;61687;56.232;43.854;2023-02-01T09:25:37;100186.25;;;1.38;64.54
73453;BME280;61687;56.232;43.854;2023-02-01T09:28:04;100178.69;;;1.49;64.64
73453;BME280;61687;56.232;43.854;2023-02-01T09:30:32;100178.84;;;1.53;64.41
73453;BME280;61687;56.232;43.854;2023-02-01T09:32:58;100185.38;;;1.52;64.40
73453;BME280;61687;56.232;43.854;2023-02-01T09:35:24;100185.50;;;1.47;64.32
73453;BME280;61687;56.232;43.854;2023-02-01T09:37:50;100190.66;;;1.34;64.99
73453;BME280;61687;56.232;43.854;2023-02-01T09:40:17;100190.56;;;1.39;65.01
73453;BME280;61687;56.232;43.854;2023-02-01T09:48:29;100168.63;;;1.41;65.27
73453;BME280;61687;56.232;43.854;2023-02-01T09:50:59;100168.50;;;1.46;65.20
73453;BME280;61687;56.232;43.854;2023-02-01T09:53:29;100169.13;;;1.43;65.26
73453;BME280;61687;56.232;43.854;2023-02-01T09:56:12;100173.84;;;1.37;65.34
73453;BME280;61687;56.232;43.854;2023-02-01T09:58:42;100170.09;;;1.24;65.90
73453;BME280;61687;56.232;43.854;2023-02-01T10:01:22;100175.41;;;1.30;66.17
73453;BME280;61687;56.232;43.854;2023-02-01T10:03:50;100179.50;;;1.27;66.20
73453;BME280;61687;56.232;43.854;2023-02-01T10:09:16;100171.69;;;1.25;66.41
73453;BME280;61687;56.232;43.854;2023-02-01T10:17:20;100169.63;;;1.22;66.66
73453;BME280;61687;56.232;43.854;2023-02-01T10:22:43;100175.97;;;1.18;66.96
73453;BME280;61687;56.232;43.854;2023-02-01T10:25:21;100165.09;;;1.32;66.53
73453;BME280;61687;56.232;43.854;2023-02-01T10:27:49;100165.78;;;1.46;66.56
73453;BME280;61687;56.232;43.854;2023-02-01T10:30:24;100172.97;;;1.51;66.04
73453;BME280;61687;56.232;43.854;2023-02-01T10:33:12;100168.19;;;1.48;66.25
73453;BME280;61687;56.232;43.854;2023-02-01T10:35:40;100174.84;;;1.41;66.53
73453;BME280;61687;56.232;43.854;2023-02-01T10:38:25;100175.47;;;1.38;66.60
73453;BME280;61687;56.232;43.854;2023-02-01T10:40:55;100173.25;;;1.40;66.74
73453;BME280;61687;56.232;43.854;2023-02-01T10:43:23;100166.97;;;1.31;66.59
73453;BME280;61687;56.232;43.854;2023-02-01T10:45:49;100174.09;;;1.27;66.71
73453;BME280;61687;56.232;43.854;2023-02-01T10:48:15;100171.34;;;1.18;67.01
73453;BME280;61687;56.232;43.854;2023-02-01T10:50:51;100164.97;;;1.14;67.03
73453;BME280;61687;56.232;43.854;2023-02-01T10:53:28;100177.56;;;1.19;67.00
73453;BME280;61687;56.232;43.854;2023-02-01T10:55:55;100170.03;;;1.16;66.81
73453;BME280;61687;56.232;43.854;2023-02-01T10:58:31;100168.28;;;1.11;66.98
73453;BME280;61687;56.232;43.854;2023-02-01T11:01:03;100166.75;;;1.19;66.93
73453;BME280;61687;56.232;43.854;2023-02-01T11:03:51;100175.34;;;1.21;66.70
73453;BME280;61687;56.232;43.854;2023-02-01T11:06:37;100180.34;;;1.13;67.14
73453;BME280;61687;56.232;43.854;2023-02-01T11:11:53;100180.97;;;1.10;66.94
73453;BME280;61687;56.232;43.854;2023-02-01T11:14:37;100180.53;;;1.17;67.11
73453;BME280;61687;56.232;43.854;2023-02-01T11:19:45;100180.03;;;1.38;66.47
73453;BME280;61687;56.232;43.854;2023-02-01T11:22:12;100177.84;;;1.40;66.47
73453;BME280;61687;56.232;43.854;2023-02-01T11:24:40;100186.81;;;1.49;66.50
73453;BME280;61687;56.232;43.854;2023-02-01T11:27:18;100179.25;;;1.60;66.26
73453;BME280;61687;56.232;43.854;2023-02-01T11:29:48;100185.47;;;1.69;65.80
73453;BME280;61687;56.232;43.854;2023-02-01T11:32:18;100189.28;;;1.68;65.99
73453;BME280;61687;56.232;43.854;2023-02-01T11:35:04;100190.53;;;1.62;65.98
73453;BME280;61687;56.232;43.854;2023-02-01T11:37:34;100187.34;;;1.60;66.14
73453;BME280;61687;56.232;43.854;2023-02-01T11:45:30;100196.94;;;1.43;66.38
73453;BME280;61687;56.232;43.854;2023-02-01T11:47:57;100189.81;;;1.48;66.46
73453;BME280;61687;56.232;43.854;2023-02-01T12:07:19;100189.22;;;1.60;67.02
73453;BME280;61687;56.232;43.854;2023-02-01T12:15:46;100187.09;;;1.48;67.35
73453;BME280;61687;56.232;43.854;2023-02-01T12:26:52;100186.50;;;1.28;68.47
73453;BME280;61687;56.232;43.854;2023-02-01T12:32:04;100191.22;;;1.22;69.00
73453;BME280;61687;56.232;43.854;2023-02-01T12:43:20;100198.59;;;1.08;69.58
73453;BME280;61687;56.232;43.854;2023-02-01T12:45:58;100191.22;;;0.99;69.93
73453;BME280;61687;56.232;43.854;2023-02-01T12:48:37;100193.75;;;0.96;70.16
73453;BME280;61687;56.232;43.854;2023-02-01T12:51:16;100195.44;;;0.92;70.53
73453;BME280;61687;56.232;43.854;2023-02-01T12:53:52;100192.84;;;0.87;70.74
73453;BME280;61687;56.232;43.854;2023-02-01T12:56:29;100201.25;;;0.85;70.91
73453;BME280;61687;56.232;43.854;2023-02-01T12:58:59;100199.63;;;0.84;71.00
73453;BME280;61687;56.232;43.854;2023-02-01T13:01:34;100200.16;;;0.86;70.98
73453;BME280;61687;56.232;43.854;2023-02-01T13:04:26;100199.47;;;0.80;71.20
73453;BME280;61687;56.232;43.854;2023-02-01T13:12:06;100202.88;;;0.72;71.65
73453;BME280;61687;56.232;43.854;2023-02-01T13:14:55;100201.28;;;0.71;71.93
73453;BME280;61687;56.232;43.854;2023-02-01T13:17:28;100200.00;;;0.68;71.94
73453;BME280;61687;56.232;43.854;2023-02-01T13:22:40;100199.72;;;0.56;72.59
73453;BME280;61687;56.232;43.854;2023-02-01T13:27:41;100188.34;;;0.45;72.96
73453;BME280;61687;56.232;43.854;2023-02-01T13:30:13;100197.03;;;0.42;73.13
73453;BME280;61687;56.232;43.854;2023-02-01T13:40:44;100199.00;;;0.50;73.17
73453;BME280;61687;56.232;43.854;2023-02-01T13:43:27;100201.72;;;0.50;73.24
73453;BME280;61687;56.232;43.854;2023-02-01T13:46:04;100201.53;;;0.47;73.37
73453;BME280;61687;56.232;43.854;2023-02-01T13:49:00;100201.72;;;0.50;73.20
73453;BME280;61687;56.232;43.854;2023-02-01T13:51:44;100202.72;;;0.54;73.07
73453;BME280;61687;56.232;43.854;2023-02-01T13:56:56;100199.72;;;0.56;73.08
73453;BME280;61687;56.232;43.854;2023-02-01T14:07:35;100211.72;;;0.50;73.75
73453;BME280;61687;56.232;43.854;2023-02-01T14:13:34;100211.50;;;0.46;73.98
73453;BME280;61687;56.232;43.854;2023-02-01T14:23:41;100219.09;;;0.44;74.30
73453;BME280;61687;56.232;43.854;2023-02-01T14:26:11;100218.31;;;0.44;74.54
73453;BME280;61687;56.232;43.854;2023-02-01T14:28:50;100215.91;;;0.42;74.73
73453;BME280;61687;56.232;43.854;2023-02-01T14:33:57;100223.00;;;0.38;74.83
73453;BME280;61687;56.232;43.854;2023-02-01T14:36:24;100217.91;;;0.36;75.05
73453;BME280;61687;56.232;43.854;2023-02-01T14:38:51;100218.72;;;0.37;75.09
73453;BME280;61687;56.232;43.854;2023-02-01T14:50:11;100222.13;;;0.42;75.26
73453;BME280;61687;56.232;43.854;2023-02-01T14:52:50;100226.50;;;0.38;75.66
73453;BME280;61687;56.232;43.854;2023-02-01T15:14:24;100225.97;;;0.50;75.71
73453;BME280;61687;56.232;43.854;2023-02-01T15:16:50;100222.78;;;0.48;75.90
73453;BME280;61687;56.232;43.854;2023-02-01T15:19:25;100225.31;;;0.45;76.00
73453;BME280;61687;56.232;43.854;2023-02-01T15:21:54;100218.00;;;0.45;76.00
73453;BME280;61687;56.232;43.854;2023-02-01T15:24:25;100229.16;;;0.52;76.13
73453;BME280;61687;56.232;43.854;2023-02-01T15:26:53;100225.91;;;0.55;75.94
73453;BME280;61687;56.232;43.854;2023-02-01T15:29:22;100228.28;;;0.57;75.90
73453;BME280;61687;56.232;43.854;2023-02-01T15:31:52;100225.28;;;0.59;75.80
73453;BME280;61687;56.232;43.854;2023-02-01T15:34:18;100224.47;;;0.58;75.93
73453;BME280;61687;56.232;43.854;2023-02-01T15:36:45;100228.47;;;0.61;75.84
73453;BME280;61687;56.232;43.854;2023-02-01T15:39:23;100235.34;;;0.67;76.02
73453;BME280;61687;56.232;43.854;2023-02-01T15:41:56;100225.78;;;0.61;76.23
73453;BME280;61687;56.232;43.854;2023-02-01T15:44:41;100232.16;;;0.65;76.06
73453;BME280;61687;56.232;43.854;2023-02-01T15:47:26;100227.25;;;0.67;75.97
73453;BME280;61687;56.232;43.854;2023-02-01T15:49:56;100229.06;;;0.71;75.99
73453;BME280;61687;56.232;43.854;2023-02-01T15:52:37;100236.66;;;0.69;75.94
73453;BME280;61687;56.232;43.854;2023-02-01T15:55:07;100235.25;;;0.72;75.99
73453;BME280;61687;56.232;43.854;2023-02-01T15:57:36;100236.06;;;0.73;76.18